Time;durP1;ratioP1;P1;durP2;ratioP2;P2;SDS_P1;SDS_P2;PMS_P1;PMS_P2;Temp;Humidity;BMP_temperature;BMP_pressure;BME280_temperature;BME280_humidity;BME280_pressure;Samples;Min_cycle;Max_cycle;Signal;HPM_P1;HPM_P2
2022/01/21 00:00:02;;;;;;;;;;;3.10;99.90;;;;;;2080687;28;19909;-69
2022/01/21 00:01:03;;;;;;;;;;;3.10;99.90;;;;;;2079934;28;19909;-69
2022/01/21 00:02:03;;;;;;;;;;;3.10;99.90;;;;;;2085619;28;19927;-69
2022/01/21 00:03:04;;;;;;;;;;;3.10;99.90;;;;;;2088122;28;20250;-69
2022/01/21 00:04:05;;;;;;;;;;;3.10;99.90;;;;;;2081262;28;19909;-69
2022/01/21 00:05:07;;;;;;;;;;;3.10;99.90;;;;;;2076702;28;19941;-69
2022/01/21 00:06:07;;;;;;;;;;;3.10;99.90;;;;;;2080765;28;19936;-69
2022/01/21 00:07:08;;;;;;;;;;;3.10;99.90;;;;;;2077158;28;19953;-70
2022/01/21 00:08:08;;;;;;;;;;;3.10;99.90;;;;;;2080448;28;20377;-69
2022/01/21 00:09:09;;;;;;;;;;;3.10;99.90;;;;;;2078607;28;19921;-69
2022/01/21 00:10:09;;;;;;;;;;;3.10;99.90;;;;;;2079396;28;20277;-69
2022/01/21 00:11:10;;;;;;;;;;;3.10;99.90;;;;;;2072398;28;19967;-69
2022/01/21 00:12:11;;;;;;;;;;;3.10;99.90;;;;;;2077756;28;20035;-69
2022/01/21 00:13:20;;;;;;;;;;;3.00;99.90;;;;;;2080456;28;19921;-69
2022/01/21 00:14:20;;;;;;;;;;;3.10;99.90;;;;;;2080692;28;19920;-69
2022/01/21 00:15:21;;;;;;;;;;;3.00;99.90;;;;;;2080340;28;19992;-69
2022/01/21 00:16:23;;;;;;;;;;;3.00;99.90;;;;;;2079857;28;20476;-69
2022/01/21 00:17:24;;;;;;;;;;;3.00;99.90;;;;;;2079759;28;20297;-69
2022/01/21 00:18:26;;;;;;;;;;;3.00;99.90;;;;;;2080696;28;19937;-69
2022/01/21 00:19:29;;;;;;;;;;;3.00;99.90;;;;;;2080513;28;20250;-69
2022/01/21 00:31:03;;;;;;;;;;;3.00;99.90;;;;;;2080515;28;19909;-69
2022/01/21 00:32:04;;;;;;;;;;;3.00;99.90;;;;;;2080461;28;19913;-69
2022/01/21 00:33:05;;;;;;;;;;;3.00;99.90;;;;;;2080225;28;19909;-69
2022/01/21 00:34:05;;;;;;;;;;;3.00;99.90;;;;;;2080242;28;19944;-69
2022/01/21 00:35:06;;;;;;;;;;;3.00;99.90;;;;;;2080715;28;20074;-69
2022/01/21 00:36:08;;;;;;;;;;;3.00;99.90;;;;;;2080130;28;20373;-70
2022/01/21 00:37:09;;;;;;;;;;;2.90;99.90;;;;;;2073909;28;20274;-69
2022/01/21 00:38:09;;;;;;;;;;;3.00;99.90;;;;;;2077643;28;19932;-69
2022/01/21 00:39:11;;;;;;;;;;;2.90;99.90;;;;;;2080579;28;19978;-69
2022/01/21 00:40:15;;;;;;;;;;;2.90;99.90;;;;;;2080399;28;19913;-69
2022/01/21 00:41:21;;;;;;;;;;;2.90;99.90;;;;;;2079532;28;20419;-69
2022/01/21 00:43:31;;;;;;;;;;;2.90;99.90;;;;;;2080607;28;19940;-69
2022/01/21 00:44:32;;;;;;;;;;;2.90;99.90;;;;;;2080220;28;19913;-69
2022/01/21 00:45:32;;;;;;;;;;;2.90;99.90;;;;;;2073542;28;19913;-69
2022/01/21 00:46:33;;;;;;;;;;;2.90;99.90;;;;;;2075150;28;19976;-70
2022/01/21 00:47:33;;;;;;;;;;;2.90;99.90;;;;;;2074585;28;19916;-69
2022/01/21 00:48:34;;;;;;;;;;;2.80;99.90;;;;;;2080231;28;19910;-70
2022/01/21 00:49:34;;;;;;;;;;;2.90;99.90;;;;;;2080209;28;19996;-69
2022/01/21 00:50:35;;;;;;;;;;;2.90;99.90;;;;;;2080395;28;19963;-69
2022/01/21 00:51:35;;;;;;;;;;;2.90;99.90;;;;;;2080535;28;19916;-69
2022/01/21 00:52:36;;;;;;;;;;;2.90;99.90;;;;;;2078718;28;19918;-69
2022/01/21 00:53:36;;;;;;;;;;;2.90;99.90;;;;;;2079888;28;20015;-69
2022/01/21 00:54:37;;;;;;;;;;;2.90;99.90;;;;;;2080383;28;20323;-69
2022/01/21 00:55:38;;;;;;;;;;;2.90;99.90;;;;;;2080312;28;20028;-69
2022/01/21 00:56:38;;;;;;;;;;;2.90;99.90;;;;;;2076158;28;19909;-69
2022/01/21 00:57:39;;;;;;;;;;;2.90;99.90;;;;;;2078891;28;19971;-69
2022/01/21 00:58:39;;;;;;;;;;;2.90;99.90;;;;;;2080248;28;19917;-69
2022/01/21 00:59:40;;;;;;;;;;;2.90;99.90;;;;;;2080346;28;19952;-69
2022/01/21 01:00:40;;;;;;;;;;;2.90;99.90;;;;;;2080203;28;19909;-69
2022/01/21 01:01:41;;;;;;;;;;;2.90;99.90;;;;;;2080236;28;20368;-69
2022/01/21 01:02:41;;;;;;;;;;;2.90;99.90;;;;;;2080127;28;19983;-69
2022/01/21 01:03:42;;;;;;;;;;;2.90;99.90;;;;;;2078302;28;19913;-69
2022/01/21 01:04:42;;;;;;;;;;;2.90;99.90;;;;;;2080029;28;19999;-69
2022/01/21 01:05:44;;;;;;;;;;;2.90;99.90;;;;;;2079763;28;20000;-69
2022/01/21 01:06:45;;;;;;;;;;;2.90;99.90;;;;;;2076479;28;19917;-69
2022/01/21 01:07:45;;;;;;;;;;;2.90;99.90;;;;;;2079249;28;19949;-69
2022/01/21 01:08:48;;;;;;;;;;;2.90;99.90;;;;;;2080099;28;19955;-69
2022/01/21 01:09:52;;;;;;;;;;;2.90;99.90;;;;;;2080124;28;19971;-69
2022/01/21 01:19:52;;;;;;;;;;;2.90;99.90;;;;;;2080537;28;19948;-69
2022/01/21 01:19:58;;;;;;;;;;;2.90;99.90;;;;;;2080316;28;19913;-69
2022/01/21 01:20:58;;;;;;;;;;;2.90;99.90;;;;;;2077185;28;20583;-69
2022/01/21 01:21:59;;;;;;;;;;;2.90;99.90;;;;;;2082860;28;20513;-69
2022/01/21 01:23:08;;;;;;;;;;;2.90;99.90;;;;;;2082908;28;20007;-69
2022/01/21 01:27:48;;;;;;;;;;;2.90;99.90;;;;;;2082640;28;19909;-69
2022/01/21 01:28:48;;;;;;;;;;;2.90;99.90;;;;;;2082894;28;19913;-69
2022/01/21 01:29:49;;;;;;;;;;;2.80;99.90;;;;;;2082863;28;20289;-69
2022/01/21 01:30:49;;;;;;;;;;;2.80;99.90;;;;;;2082643;28;20297;-69
2022/01/21 01:31:50;;;;;;;;;;;2.80;99.90;;;;;;2082699;28;19910;-69
2022/01/21 01:32:51;;;;;;;;;;;2.80;99.90;;;;;;2082444;28;19916;-69
2022/01/21 01:33:53;;;;;;;;;;;2.80;99.90;;;;;;2082649;28;19973;-69
2022/01/21 01:34:53;;;;;;;;;;;2.70;99.90;;;;;;2079455;28;19917;-69
2022/01/21 01:35:55;;;;;;;;;;;2.70;99.90;;;;;;2075881;28;19919;-69
2022/01/21 01:36:58;;;;;;;;;;;2.70;99.90;;;;;;2076391;28;20008;-69
2022/01/21 01:38:25;;;;;;;;;;;2.70;99.90;;;;;;2078042;28;20007;-69
2022/01/21 01:40:03;;;;;;;;;;;2.70;99.90;;;;;;2082380;28;20018;-69
2022/01/21 01:40:57;;;;;;;;;;;2.60;99.90;;;;;;2081517;28;19909;-69
2022/01/21 01:42:58;;;;;;;;;;;2.60;99.90;;;;;;2083085;28;20277;-69
2022/01/21 01:49:30;;;;;;;;;;;2.60;99.90;;;;;;2082324;28;20008;-69
2022/01/21 01:50:30;;;;;;;;;;;2.60;99.90;;;;;;2082917;28;19927;-69
2022/01/21 01:51:31;;;;;;;;;;;2.50;99.90;;;;;;2082920;28;19914;-69
2022/01/21 01:52:32;;;;;;;;;;;2.50;99.90;;;;;;2082787;28;19913;-69
2022/01/21 01:53:35;;;;;;;;;;;2.50;99.90;;;;;;2090440;28;20359;-69
2022/01/21 01:54:37;;;;;;;;;;;2.60;99.90;;;;;;2089727;28;20333;-69
2022/01/21 01:55:38;;;;;;;;;;;2.60;99.90;;;;;;2082591;28;20372;-69
2022/01/21 01:56:41;;;;;;;;;;;2.60;99.90;;;;;;2082236;28;20472;-69
2022/01/21 01:57:41;;;;;;;;;;;2.60;99.90;;;;;;2081964;28;19971;-69
2022/01/21 01:58:43;;;;;;;;;;;2.60;99.90;;;;;;2082885;28;19917;-69
2022/01/21 01:59:43;;;;;;;;;;;2.60;99.90;;;;;;2082762;28;19909;-69
2022/01/21 02:00:44;;;;;;;;;;;2.60;99.90;;;;;;2082468;28;19909;-69
2022/01/21 02:01:55;;;;;;;;;;;2.60;99.90;;;;;;2082715;28;19976;-69
2022/01/21 02:03:03;;;;;;;;;;;2.60;99.90;;;;;;2074682;28;20592;-69
2022/01/21 02:04:04;;;;;;;;;;;2.60;99.90;;;;;;2080684;28;19917;-69
2022/01/21 02:05:04;;;;;;;;;;;2.60;99.90;;;;;;2082665;28;19921;-69
2022/01/21 02:06:05;;;;;;;;;;;2.60;99.90;;;;;;2082528;28;19945;-69
2022/01/21 02:07:06;;;;;;;;;;;2.60;99.90;;;;;;2082000;28;19963;-69
2022/01/21 02:08:07;;;;;;;;;;;2.60;99.90;;;;;;2082267;28;19909;-69
2022/01/21 02:09:07;;;;;;;;;;;2.60;99.90;;;;;;2082663;28;20373;-69
2022/01/21 02:10:08;;;;;;;;;;;2.60;99.90;;;;;;2082281;28;19989;-69
2022/01/21 02:11:08;;;;;;;;;;;2.60;99.90;;;;;;2075816;28;19914;-69
2022/01/21 02:12:09;;;;;;;;;;;2.60;99.90;;;;;;2083011;28;19913;-69
2022/01/21 02:13:31;;;;;;;;;;;2.60;99.90;;;;;;2090535;28;19913;-69
2022/01/21 02:14:35;;;;;;;;;;;2.60;99.90;;;;;;2090855;28;19909;-69
2022/01/21 02:15:41;;;;;;;;;;;2.60;99.90;;;;;;2083797;28;19939;-69
2022/01/21 02:17:11;;;;;;;;;;;2.60;99.90;;;;;;2082299;28;20276;-69
2022/01/21 02:22:03;;;;;;;;;;;2.60;99.90;;;;;;2082898;28;19913;-69
2022/01/21 02:23:04;;;;;;;;;;;2.60;99.90;;;;;;2082874;28;20015;-69
2022/01/21 02:24:08;;;;;;;;;;;2.60;99.90;;;;;;2082513;28;19917;-69
2022/01/21 02:25:17;;;;;;;;;;;2.60;99.90;;;;;;2081021;28;20288;-69
2022/01/21 02:26:18;;;;;;;;;;;2.60;99.90;;;;;;2082890;28;19917;-69
2022/01/21 02:27:19;;;;;;;;;;;2.60;99.90;;;;;;2075096;28;19957;-69
2022/01/21 02:28:20;;;;;;;;;;;2.60;99.90;;;;;;2078705;28;19917;-69
2022/01/21 02:29:30;;;;;;;;;;;2.60;99.90;;;;;;2082500;28;19963;-69
2022/01/21 02:30:31;;;;;;;;;;;2.60;99.90;;;;;;2082534;28;19909;-69
2022/01/21 02:31:32;;;;;;;;;;;2.60;99.90;;;;;;2082579;28;19968;-69
2022/01/21 02:32:33;;;;;;;;;;;2.60;99.90;;;;;;2081203;28;19977;-69
2022/01/21 02:33:33;;;;;;;;;;;2.60;99.90;;;;;;2080642;28;20312;-69
2022/01/21 02:34:34;;;;;;;;;;;2.60;99.90;;;;;;2076064;28;19920;-69
2022/01/21 02:35:34;;;;;;;;;;;2.60;99.90;;;;;;2081091;28;20306;-69
2022/01/21 02:36:35;;;;;;;;;;;2.60;99.90;;;;;;2080984;28;20004;-69
2022/01/21 02:37:36;;;;;;;;;;;2.60;99.90;;;;;;2079879;28;19917;-69
2022/01/21 02:38:37;;;;;;;;;;;2.60;99.90;;;;;;2081413;28;19920;-69
2022/01/21 02:39:37;;;;;;;;;;;2.60;99.90;;;;;;2081393;28;19917;-69
2022/01/21 02:40:38;;;;;;;;;;;2.60;99.90;;;;;;2077038;28;19918;-69
2022/01/21 02:41:38;;;;;;;;;;;2.60;99.90;;;;;;2075511;28;19918;-69
2022/01/21 02:42:39;;;;;;;;;;;2.60;99.90;;;;;;2074383;28;20392;-69
2022/01/21 02:43:39;;;;;;;;;;;2.60;99.90;;;;;;2081485;28;19913;-69
2022/01/21 02:44:40;;;;;;;;;;;2.60;99.90;;;;;;2081127;28;19920;-69
2022/01/21 02:45:45;;;;;;;;;;;2.60;99.90;;;;;;2081368;28;19909;-69
2022/01/21 02:46:46;;;;;;;;;;;2.60;99.90;;;;;;2081364;28;20429;-69
2022/01/21 02:47:47;;;;;;;;;;;2.60;99.90;;;;;;2080836;28;19924;-69
2022/01/21 02:48:47;;;;;;;;;;;2.60;99.90;;;;;;2080639;28;19965;-69
2022/01/21 02:49:48;;;;;;;;;;;2.60;99.90;;;;;;2080506;28;19909;-69
2022/01/21 02:50:48;;;;;;;;;;;2.60;99.90;;;;;;2081148;28;19913;-69
2022/01/21 02:51:50;;;;;;;;;;;2.60;99.90;;;;;;2081118;28;19920;-69
2022/01/21 02:53:09;;;;;;;;;;;2.60;99.90;;;;;;2081230;28;19956;-69
2022/01/21 02:54:10;;;;;;;;;;;2.70;99.90;;;;;;2081299;28;19913;-69
2022/01/21 02:55:10;;;;;;;;;;;2.70;99.90;;;;;;2079648;28;19909;-69
2022/01/21 02:56:12;;;;;;;;;;;2.60;99.90;;;;;;2074674;28;19941;-69
2022/01/21 02:57:12;;;;;;;;;;;2.60;99.90;;;;;;2075172;28;20405;-69
2022/01/21 02:58:13;;;;;;;;;;;2.70;99.90;;;;;;2081118;28;20273;-69
2022/01/21 02:59:13;;;;;;;;;;;2.70;99.90;;;;;;2080982;28;20341;-69
2022/01/21 03:00:14;;;;;;;;;;;2.70;99.90;;;;;;2080793;28;19913;-69
2022/01/21 03:01:16;;;;;;;;;;;2.70;99.90;;;;;;2082398;28;19909;-69
2022/01/21 03:02:16;;;;;;;;;;;2.70;99.90;;;;;;2082260;28;20419;-69
2022/01/21 03:03:16;;;;;;;;;;;2.70;99.90;;;;;;2082197;28;20311;-69
2022/01/21 03:05:35;;;;;;;;;;;2.60;99.90;;;;;;2078023;28;19924;-69
2022/01/21 03:06:38;;;;;;;;;;;2.70;99.90;;;;;;2082701;28;20307;-69
2022/01/21 03:07:39;;;;;;;;;;;2.70;99.90;;;;;;2081779;28;19949;-69
2022/01/21 03:08:39;;;;;;;;;;;2.60;99.90;;;;;;2082336;28;19971;-69
2022/01/21 03:09:40;;;;;;;;;;;2.70;99.90;;;;;;2081827;28;19949;-69
2022/01/21 03:10:40;;;;;;;;;;;2.70;99.90;;;;;;2082436;28;20004;-69
2022/01/21 03:11:41;;;;;;;;;;;2.70;99.90;;;;;;2082248;28;19995;-69
2022/01/21 03:12:41;;;;;;;;;;;2.70;99.90;;;;;;2082095;28;19913;-69
2022/01/21 03:13:42;;;;;;;;;;;2.70;99.90;;;;;;2082190;28;19959;-69
2022/01/21 03:14:42;;;;;;;;;;;2.70;99.90;;;;;;2082238;28;19932;-69
2022/01/21 03:15:43;;;;;;;;;;;2.70;99.90;;;;;;2082104;28;19951;-69
2022/01/21 03:16:43;;;;;;;;;;;2.70;99.90;;;;;;2082056;28;19919;-69
2022/01/21 03:17:44;;;;;;;;;;;2.70;99.90;;;;;;2081761;28;19917;-69
2022/01/21 03:18:44;;;;;;;;;;;2.70;99.90;;;;;;2082113;28;19963;-69
2022/01/21 03:19:45;;;;;;;;;;;2.70;99.90;;;;;;2082200;28;20427;-69
2022/01/21 03:20:45;;;;;;;;;;;2.70;99.90;;;;;;2082078;28;20366;-69
2022/01/21 03:21:46;;;;;;;;;;;2.70;99.90;;;;;;2082600;28;19909;-69
2022/01/21 03:22:46;;;;;;;;;;;2.70;99.90;;;;;;2082021;28;19909;-69
2022/01/21 03:23:48;;;;;;;;;;;2.70;99.90;;;;;;2081293;28;19909;-69
2022/01/21 03:24:48;;;;;;;;;;;2.70;99.90;;;;;;2081800;28;19917;-69
2022/01/21 03:25:49;;;;;;;;;;;2.70;99.90;;;;;;2082106;28;19917;-69
2022/01/21 03:26:49;;;;;;;;;;;2.70;99.90;;;;;;2081859;28;19920;-69
2022/01/21 03:27:49;;;;;;;;;;;2.80;99.90;;;;;;2081643;28;19913;-69
2022/01/21 03:28:52;;;;;;;;;;;2.80;99.90;;;;;;2082193;28;19917;-69
2022/01/21 03:29:52;;;;;;;;;;;2.80;99.90;;;;;;2082304;28;19913;-70
2022/01/21 03:30:56;;;;;;;;;;;2.70;99.90;;;;;;2081857;28;19917;-69
2022/01/21 03:31:56;;;;;;;;;;;2.80;99.90;;;;;;2081684;28;19975;-69
2022/01/21 03:32:57;;;;;;;;;;;2.80;99.90;;;;;;2082052;28;20058;-69
2022/01/21 03:34:00;;;;;;;;;;;2.80;99.90;;;;;;2082043;28;19959;-69
2022/01/21 03:35:01;;;;;;;;;;;2.80;99.90;;;;;;2082019;28;19909;-69
2022/01/21 03:36:01;;;;;;;;;;;2.80;99.90;;;;;;2082169;28;19910;-69
2022/01/21 03:37:02;;;;;;;;;;;2.80;99.90;;;;;;2079859;28;19919;-69
2022/01/21 03:38:03;;;;;;;;;;;2.80;99.90;;;;;;2077310;28;19967;-69
2022/01/21 03:39:03;;;;;;;;;;;2.80;99.90;;;;;;2081880;28;19975;-69
2022/01/21 03:40:04;;;;;;;;;;;2.80;99.90;;;;;;2082163;28;19913;-69
2022/01/21 03:41:05;;;;;;;;;;;2.90;99.90;;;;;;2081989;28;19913;-69
2022/01/21 03:42:05;;;;;;;;;;;2.90;99.90;;;;;;2082027;28;20016;-69
2022/01/21 03:43:06;;;;;;;;;;;2.90;99.90;;;;;;2081886;28;19909;-69
2022/01/21 03:44:06;;;;;;;;;;;2.90;99.90;;;;;;2081846;28;20364;-69
2022/01/21 03:45:07;;;;;;;;;;;2.90;99.90;;;;;;2081822;28;19909;-69
2022/01/21 03:46:08;;;;;;;;;;;2.90;99.90;;;;;;2082006;28;19916;-69
2022/01/21 03:47:08;;;;;;;;;;;2.90;99.90;;;;;;2081904;28;19983;-69
2022/01/21 03:48:09;;;;;;;;;;;2.90;99.90;;;;;;2081656;28;19967;-69
2022/01/21 03:49:09;;;;;;;;;;;2.90;99.90;;;;;;2081629;28;19991;-69
2022/01/21 03:51:20;;;;;;;;;;;2.90;99.90;;;;;;2081473;28;19963;-69
2022/01/21 03:52:20;;;;;;;;;;;3.00;99.90;;;;;;2082088;28;19924;-69
2022/01/21 03:53:21;;;;;;;;;;;3.00;99.90;;;;;;2082071;28;19943;-69
2022/01/21 03:54:21;;;;;;;;;;;2.90;99.90;;;;;;2081917;28;20558;-69
2022/01/21 03:55:22;;;;;;;;;;;2.90;99.90;;;;;;2081934;28;19909;-69
2022/01/21 03:56:22;;;;;;;;;;;3.00;99.90;;;;;;2081766;28;20522;-69
2022/01/21 03:57:23;;;;;;;;;;;3.00;99.90;;;;;;2081570;28;19914;-69
2022/01/21 03:58:23;;;;;;;;;;;3.00;99.90;;;;;;2081286;28;19913;-69
2022/01/21 03:59:24;;;;;;;;;;;3.00;99.90;;;;;;2081935;28;19913;-69
2022/01/21 04:00:26;;;;;;;;;;;3.00;99.90;;;;;;2076820;28;19909;-69
2022/01/21 04:01:28;;;;;;;;;;;3.00;99.90;;;;;;2083350;28;20434;-69
2022/01/21 04:02:29;;;;;;;;;;;3.00;99.90;;;;;;2083144;28;20429;-69
2022/01/21 04:03:29;;;;;;;;;;;2.90;99.90;;;;;;2080729;28;20333;-69
2022/01/21 04:04:30;;;;;;;;;;;3.00;99.90;;;;;;2081234;28;19909;-69
2022/01/21 04:05:31;;;;;;;;;;;3.00;99.90;;;;;;2080401;28;19925;-69
2022/01/21 04:06:31;;;;;;;;;;;3.00;99.90;;;;;;2081610;28;19991;-69
2022/01/21 04:07:32;;;;;;;;;;;3.00;99.90;;;;;;2081831;28;20251;-69
2022/01/21 04:08:32;;;;;;;;;;;3.00;99.90;;;;;;2081887;28;19909;-69
2022/01/21 04:09:33;;;;;;;;;;;3.00;99.90;;;;;;2082142;28;19959;-69
2022/01/21 04:10:35;;;;;;;;;;;3.00;99.90;;;;;;2081910;28;20034;-70
2022/01/21 04:11:36;;;;;;;;;;;3.00;99.90;;;;;;2081826;28;19909;-69
2022/01/21 04:12:36;;;;;;;;;;;3.00;99.90;;;;;;2082031;28;19909;-69
2022/01/21 04:13:36;;;;;;;;;;;3.00;99.90;;;;;;2081985;28;19909;-69
2022/01/21 04:14:37;;;;;;;;;;;3.00;99.90;;;;;;2082004;28;20509;-69
2022/01/21 04:15:37;;;;;;;;;;;3.00;99.90;;;;;;2082164;28;19916;-69
2022/01/21 04:16:38;;;;;;;;;;;3.00;99.90;;;;;;2081678;28;19920;-69
2022/01/21 04:17:38;;;;;;;;;;;3.00;99.90;;;;;;2081750;28;19942;-69
2022/01/21 04:18:39;;;;;;;;;;;3.00;99.90;;;;;;2081298;28;19957;-69
2022/01/21 04:19:39;;;;;;;;;;;3.00;99.90;;;;;;2082126;28;19913;-69
2022/01/21 04:20:41;;;;;;;;;;;3.00;99.90;;;;;;2081928;28;19949;-69
2022/01/21 04:21:41;;;;;;;;;;;3.00;99.90;;;;;;2081055;28;20000;-69
2022/01/21 04:22:42;;;;;;;;;;;3.00;99.90;;;;;;2081970;28;19909;-69
2022/01/21 04:23:43;;;;;;;;;;;3.00;99.90;;;;;;2081636;28;20343;-69
2022/01/21 04:24:48;;;;;;;;;;;3.00;99.90;;;;;;2081894;28;19940;-69
2022/01/21 04:25:49;;;;;;;;;;;3.00;99.90;;;;;;2082139;28;19948;-69
2022/01/21 04:26:49;;;;;;;;;;;3.00;99.90;;;;;;2081806;28;19917;-69
2022/01/21 04:27:50;;;;;;;;;;;3.00;99.90;;;;;;2081651;28;19936;-69
2022/01/21 04:28:50;;;;;;;;;;;3.00;99.90;;;;;;2081762;28;19916;-69
2022/01/21 04:29:51;;;;;;;;;;;3.00;99.90;;;;;;2078617;28;19913;-69
2022/01/21 04:30:51;;;;;;;;;;;3.00;99.90;;;;;;2081824;28;20007;-69
2022/01/21 04:31:51;;;;;;;;;;;3.00;99.90;;;;;;2081599;28;19909;-69
2022/01/21 04:32:52;;;;;;;;;;;3.00;99.90;;;;;;2081271;28;20353;-69
2022/01/21 04:33:52;;;;;;;;;;;3.00;99.90;;;;;;2081959;28;19913;-69
2022/01/21 04:34:53;;;;;;;;;;;3.00;99.90;;;;;;2081253;28;19971;-69
2022/01/21 04:35:53;;;;;;;;;;;3.00;99.90;;;;;;2081706;28;19916;-69
2022/01/21 04:36:54;;;;;;;;;;;3.00;99.90;;;;;;2082000;28;19920;-69
2022/01/21 04:38:01;;;;;;;;;;;3.00;99.90;;;;;;2081398;28;20301;-69
2022/01/21 04:39:04;;;;;;;;;;;3.00;99.90;;;;;;2081963;28;20016;-69
2022/01/21 04:40:12;;;;;;;;;;;3.00;99.90;;;;;;2081710;28;19923;-69
2022/01/21 04:48:17;;;;;;;;;;;3.00;99.90;;;;;;2081600;28;19913;-69
2022/01/21 04:49:17;;;;;;;;;;;3.10;99.90;;;;;;2081746;28;19952;-69
2022/01/21 04:50:18;;;;;;;;;;;3.00;99.90;;;;;;2081566;28;19916;-69
2022/01/21 04:51:25;;;;;;;;;;;3.10;99.90;;;;;;2080800;28;19936;-69
2022/01/21 04:52:26;;;;;;;;;;;3.10;99.90;;;;;;2076026;28;19925;-69
2022/01/21 04:53:27;;;;;;;;;;;3.10;99.90;;;;;;2081965;28;19925;-69
2022/01/21 04:54:28;;;;;;;;;;;3.10;99.90;;;;;;2081627;28;20382;-69
2022/01/21 04:55:28;;;;;;;;;;;3.10;99.90;;;;;;2081666;28;19909;-69
2022/01/21 04:56:29;;;;;;;;;;;3.10;99.90;;;;;;2081239;28;19967;-69
2022/01/21 04:57:29;;;;;;;;;;;3.10;99.90;;;;;;2085774;28;20010;-69
2022/01/21 04:58:30;;;;;;;;;;;3.10;99.90;;;;;;2080939;28;20421;-69
2022/01/21 04:59:31;;;;;;;;;;;3.10;99.90;;;;;;2081206;28;19916;-69
2022/01/21 05:00:31;;;;;;;;;;;3.10;99.90;;;;;;2079063;28;20003;-69
2022/01/21 05:01:32;;;;;;;;;;;3.10;99.90;;;;;;2073577;28;19914;-69
2022/01/21 05:02:34;;;;;;;;;;;3.10;99.90;;;;;;2079475;28;19909;-69
2022/01/21 05:03:36;;;;;;;;;;;3.10;99.90;;;;;;2081934;28;20353;-69
2022/01/21 05:04:36;;;;;;;;;;;3.20;99.90;;;;;;2080859;28;19917;-69
2022/01/21 05:05:38;;;;;;;;;;;3.10;99.90;;;;;;2087646;28;19963;-69
2022/01/21 05:06:39;;;;;;;;;;;3.10;99.90;;;;;;2087609;28;20008;-69
2022/01/21 05:07:41;;;;;;;;;;;3.10;99.90;;;;;;2079574;28;19913;-69
2022/01/21 05:08:46;;;;;;;;;;;3.20;99.90;;;;;;2080224;28;20387;-69
2022/01/21 05:09:47;;;;;;;;;;;3.20;99.90;;;;;;2080137;28;19909;-69
2022/01/21 05:10:47;;;;;;;;;;;3.20;99.90;;;;;;2079872;28;20352;-69
2022/01/21 05:11:51;;;;;;;;;;;3.20;99.90;;;;;;2080620;28;19909;-69
2022/01/21 05:12:52;;;;;;;;;;;3.20;99.90;;;;;;2080257;28;19917;-69
2022/01/21 05:14:13;;;;;;;;;;;3.20;99.90;;;;;;2079928;28;19917;-70
2022/01/21 05:15:29;;;;;;;;;;;3.20;99.90;;;;;;2075515;28;19992;-69
2022/01/21 05:16:34;;;;;;;;;;;3.20;99.90;;;;;;2080335;28;20328;-69
2022/01/21 05:17:43;;;;;;;;;;;3.20;99.90;;;;;;2080167;28;19913;-69
2022/01/21 05:18:43;;;;;;;;;;;3.30;99.90;;;;;;2080379;28;19916;-69
2022/01/21 05:19:44;;;;;;;;;;;3.30;99.90;;;;;;2080203;28;19921;-69
2022/01/21 05:20:44;;;;;;;;;;;3.30;99.90;;;;;;2080471;28;19945;-69
2022/01/21 05:21:49;;;;;;;;;;;3.30;99.90;;;;;;2080124;28;19913;-69
2022/01/21 05:22:49;;;;;;;;;;;3.20;99.90;;;;;;2079660;28;20647;-69
2022/01/21 05:23:50;;;;;;;;;;;3.30;99.90;;;;;;2079345;28;20345;-69
2022/01/21 05:24:50;;;;;;;;;;;3.30;99.90;;;;;;2076535;28;20000;-69
2022/01/21 05:25:51;;;;;;;;;;;3.30;99.90;;;;;;2077713;28;19941;-69
2022/01/21 05:26:57;;;;;;;;;;;3.30;99.90;;;;;;2080240;28;19920;-69
2022/01/21 05:27:59;;;;;;;;;;;3.30;99.90;;;;;;2079050;28;20882;-69
2022/01/21 05:28:59;;;;;;;;;;;3.30;99.90;;;;;;2072273;28;19924;-69
2022/01/21 05:30:00;;;;;;;;;;;3.20;99.90;;;;;;2075091;28;19921;-69
2022/01/21 05:31:00;;;;;;;;;;;3.30;99.90;;;;;;2078839;28;20059;-69
2022/01/21 05:32:01;;;;;;;;;;;3.20;99.90;;;;;;2079004;28;19921;-69
2022/01/21 05:33:02;;;;;;;;;;;3.20;99.90;;;;;;2076379;28;20460;-69
2022/01/21 05:34:03;;;;;;;;;;;3.30;99.90;;;;;;2080038;28;20523;-69
2022/01/21 05:35:03;;;;;;;;;;;3.30;99.90;;;;;;2080044;28;19913;-69
2022/01/21 05:36:04;;;;;;;;;;;3.20;99.90;;;;;;2079629;28;19916;-69
2022/01/21 05:37:04;;;;;;;;;;;3.20;99.90;;;;;;2080103;28;20447;-69
2022/01/21 05:38:05;;;;;;;;;;;3.20;99.90;;;;;;2079107;28;19913;-69
2022/01/21 05:39:06;;;;;;;;;;;3.20;99.90;;;;;;2077297;28;20004;-69
2022/01/21 05:40:08;;;;;;;;;;;3.30;99.90;;;;;;2078279;28;19971;-69
2022/01/21 05:41:08;;;;;;;;;;;3.20;99.90;;;;;;2077290;28;20008;-69
2022/01/21 05:42:09;;;;;;;;;;;3.30;99.90;;;;;;2075088;28;19960;-69
2022/01/21 05:43:09;;;;;;;;;;;3.30;99.90;;;;;;2077784;28;19928;-69
2022/01/21 05:44:20;;;;;;;;;;;3.20;99.90;;;;;;2075938;28;19920;-69
2022/01/21 05:46:55;;;;;;;;;;;3.20;99.90;;;;;;2079716;28;20377;-69
2022/01/21 05:47:55;;;;;;;;;;;3.30;99.90;;;;;;2079394;28;20568;-69
2022/01/21 05:48:55;;;;;;;;;;;3.20;99.90;;;;;;2079688;28;20288;-69
2022/01/21 05:49:56;;;;;;;;;;;3.30;99.90;;;;;;2079757;28;19944;-69
2022/01/21 05:50:58;;;;;;;;;;;3.30;99.90;;;;;;2077806;28;19913;-69
2022/01/21 05:52:04;;;;;;;;;;;3.20;99.90;;;;;;2082879;28;19955;-69
2022/01/21 05:53:09;;;;;;;;;;;3.20;99.90;;;;;;2080849;28;19913;-69
2022/01/21 05:54:09;;;;;;;;;;;3.20;99.90;;;;;;2075538;28;20305;-69
2022/01/21 05:55:10;;;;;;;;;;;3.20;99.90;;;;;;2079703;28;20006;-69
2022/01/21 05:56:11;;;;;;;;;;;3.20;99.90;;;;;;2080200;28;19913;-69
2022/01/21 05:57:14;;;;;;;;;;;3.20;99.90;;;;;;2078928;28;19928;-69
2022/01/21 05:58:14;;;;;;;;;;;3.20;99.90;;;;;;2075815;28;19913;-69
2022/01/21 05:59:15;;;;;;;;;;;3.20;99.90;;;;;;2074027;28;19914;-69
2022/01/21 06:00:15;;;;;;;;;;;3.20;99.90;;;;;;2074356;28;20310;-69
2022/01/21 06:01:16;;;;;;;;;;;3.20;99.90;;;;;;2076633;28;19909;-69
2022/01/21 06:02:16;;;;;;;;;;;3.20;99.90;;;;;;2075919;28;20416;-70
2022/01/21 06:03:17;;;;;;;;;;;3.20;99.90;;;;;;2073620;28;19960;-69
2022/01/21 06:04:17;;;;;;;;;;;3.20;99.90;;;;;;2079297;28;20378;-69
2022/01/21 06:05:18;;;;;;;;;;;3.10;99.90;;;;;;2074509;28;19913;-69
2022/01/21 06:06:18;;;;;;;;;;;3.10;99.90;;;;;;2074442;28;19917;-69
2022/01/21 06:07:19;;;;;;;;;;;3.20;99.90;;;;;;2073077;28;19996;-69
2022/01/21 06:08:19;;;;;;;;;;;3.20;99.90;;;;;;2074315;28;19917;-69
2022/01/21 06:09:20;;;;;;;;;;;3.10;99.90;;;;;;2078066;28;19962;-69
2022/01/21 06:10:20;;;;;;;;;;;3.20;99.90;;;;;;2078349;28;19923;-70
2022/01/21 06:11:21;;;;;;;;;;;3.10;99.90;;;;;;2075308;28;19921;-69
2022/01/21 06:12:21;;;;;;;;;;;3.10;99.90;;;;;;2075569;28;19914;-69
2022/01/21 06:13:22;;;;;;;;;;;3.10;99.90;;;;;;2078159;28;19913;-69
2022/01/21 06:14:24;;;;;;;;;;;3.10;99.90;;;;;;2074727;28;19941;-69
2022/01/21 06:15:25;;;;;;;;;;;3.10;99.90;;;;;;2077681;28;20361;-69
2022/01/21 06:16:25;;;;;;;;;;;3.20;99.90;;;;;;2079093;28;20274;-69
2022/01/21 06:17:26;;;;;;;;;;;3.20;99.90;;;;;;2075577;28;20357;-69
2022/01/21 06:18:26;;;;;;;;;;;3.10;99.90;;;;;;2077376;28;19914;-69
2022/01/21 06:19:27;;;;;;;;;;;3.20;99.90;;;;;;2078204;28;19955;-69
2022/01/21 06:20:29;;;;;;;;;;;3.20;99.90;;;;;;2078139;28;19910;-69
2022/01/21 06:21:30;;;;;;;;;;;3.20;99.90;;;;;;2075220;28;19962;-69
2022/01/21 06:22:32;;;;;;;;;;;3.20;99.90;;;;;;2074959;28;19921;-69
2022/01/21 06:23:33;;;;;;;;;;;3.20;99.90;;;;;;2077509;28;19924;-69
2022/01/21 06:24:33;;;;;;;;;;;3.20;99.90;;;;;;2075657;28;19909;-69
2022/01/21 06:25:34;;;;;;;;;;;3.20;99.90;;;;;;2076338;28;20380;-69
2022/01/21 06:26:35;;;;;;;;;;;3.20;99.90;;;;;;2078152;28;20399;-69
2022/01/21 06:27:36;;;;;;;;;;;3.20;99.90;;;;;;2078042;28;19916;-69
2022/01/21 06:28:37;;;;;;;;;;;3.20;99.90;;;;;;2077095;28;19997;-69
2022/01/21 06:29:37;;;;;;;;;;;3.20;99.90;;;;;;2078198;28;19920;-69
2022/01/21 06:30:38;;;;;;;;;;;3.20;99.90;;;;;;2079502;28;19921;-69
2022/01/21 06:31:39;;;;;;;;;;;3.20;99.90;;;;;;2077206;28;19920;-69
2022/01/21 06:32:39;;;;;;;;;;;3.20;99.90;;;;;;2077000;28;19920;-69
2022/01/21 06:33:40;;;;;;;;;;;3.20;99.90;;;;;;2076777;28;19928;-69
2022/01/21 06:34:40;;;;;;;;;;;3.20;99.90;;;;;;2074494;28;19917;-69
2022/01/21 06:35:41;;;;;;;;;;;3.30;99.90;;;;;;2076433;28;20350;-69
2022/01/21 06:36:42;;;;;;;;;;;3.30;99.90;;;;;;2076027;28;19920;-69
2022/01/21 06:37:42;;;;;;;;;;;3.30;99.90;;;;;;2079318;28;19921;-69
2022/01/21 06:38:42;;;;;;;;;;;3.30;99.90;;;;;;2073541;28;19913;-69
2022/01/21 06:39:43;;;;;;;;;;;3.30;99.90;;;;;;2077569;28;19979;-69
2022/01/21 06:40:44;;;;;;;;;;;3.30;99.90;;;;;;2078252;28;19936;-69
2022/01/21 06:41:46;;;;;;;;;;;3.30;99.90;;;;;;2077348;28;20382;-69
2022/01/21 06:42:48;;;;;;;;;;;3.30;99.90;;;;;;2076726;28;19919;-69
2022/01/21 06:43:48;;;;;;;;;;;3.30;99.90;;;;;;2077086;28;20350;-69
2022/01/21 06:44:49;;;;;;;;;;;3.30;99.90;;;;;;2077038;28;20286;-69
2022/01/21 06:45:50;;;;;;;;;;;3.30;99.90;;;;;;2077516;28;19921;-69
2022/01/21 06:46:50;;;;;;;;;;;3.30;99.90;;;;;;2078334;28;19939;-69
2022/01/21 06:47:51;;;;;;;;;;;3.30;99.90;;;;;;2080243;28;20332;-69
2022/01/21 06:48:51;;;;;;;;;;;3.30;99.90;;;;;;2078791;28;19925;-69